Time;durP1;ratioP1;P1;durP2;ratioP2;P2;SDS_P1;SDS_P2;PMS_P1;PMS_P2;Temp;Humidity;BMP_temperature;BMP_pressure;BME280_temperature;BME280_humidity;BME280_pressure;Samples;Min_cycle;Max_cycle;Signal;HPM_P1;HPM_P2
2021/06/06 04:01:54;;;;;;;16.80;11.07;;;14.80;96.30;;;;;;5258004;23;20503;-79
2021/06/06 04:04:20;;;;;;;12.70;11.50;;;14.80;96.30;;;;;;4925963;29;20472;-80
2021/06/06 04:06:46;;;;;;;11.10;10.20;;;14.80;96.30;;;;;;4917789;29;20224;-79
2021/06/06 04:09:12;;;;;;;12.30;11.20;;;14.80;96.30;;;;;;4932442;29;20974;-79
2021/06/06 04:11:39;;;;;;;12.33;11.13;;;14.80;96.30;;;;;;4932330;29;20201;-79
2021/06/06 04:14:06;;;;;;;17.93;11.63;;;14.80;96.30;;;;;;4933199;29;20421;-80
2021/06/06 04:16:31;;;;;;;28.10;11.10;;;14.90;96.30;;;;;;4918490;29;20428;-80
2021/06/06 04:18:58;;;;;;;17.27;9.43;;;14.90;96.30;;;;;;4919961;29;20424;-80
2021/06/06 04:21:27;;;;;;;21.47;10.30;;;14.90;96.30;;;;;;4920234;29;20747;-80
2021/06/06 04:23:53;;;;;;;12.30;9.43;;;15.00;96.30;;;;;;4920050;29;20909;-80
2021/06/06 04:26:20;;;;;;;11.07;9.43;;;15.00;96.30;;;;;;4919116;29;20415;-80
2021/06/06 04:28:46;;;;;;;30.47;9.30;;;15.00;96.30;;;;;;4920131;29;20488;-81
2021/06/06 04:31:12;;;;;;;25.97;9.40;;;15.00;96.30;;;;;;4919253;29;20548;-80
2021/06/06 04:33:39;;;;;;;10.90;9.77;;;15.00;96.30;;;;;;4920328;29;20476;-80
2021/06/06 04:36:05;;;;;;;12.67;10.20;;;15.00;96.30;;;;;;4921031;29;20452;-80
2021/06/06 04:38:32;;;;;;;19.50;12.00;;;15.00;96.30;;;;;;4920371;29;20930;-81
2021/06/06 04:41:00;;;;;;;53.67;19.50;;;15.00;96.30;;;;;;4920942;29;20468;-81
2021/06/06 04:43:26;;;;;;;84.70;25.47;;;15.10;96.30;;;;;;4922478;29;20976;-81
2021/06/06 04:45:52;;;;;;;80.10;25.60;;;15.00;96.30;;;;;;4921555;29;20495;-80
2021/06/06 04:48:20;;;;;;;80.50;27.23;;;15.00;96.30;;;;;;4921951;29;20181;-81
2021/06/06 04:50:46;;;;;;;53.93;22.90;;;15.10;96.30;;;;;;4921953;29;20436;-80
2021/06/06 04:53:13;;;;;;;44.30;22.30;;;15.10;96.30;;;;;;4922655;29;20468;-80
2021/06/06 04:55:39;;;;;;;35.00;18.60;;;15.20;96.30;;;;;;4921565;29;20495;-80
2021/06/06 04:58:06;;;;;;;38.97;24.03;;;15.20;96.30;;;;;;4922365;29;20421;-80
2021/06/06 05:00:35;;;;;;;29.80;18.10;;;15.20;96.30;;;;;;4923159;29;20506;-81
2021/06/06 05:03:01;;;;;;;26.03;17.87;;;15.30;96.30;;;;;;4923112;29;20931;-80
2021/06/06 05:05:27;;;;;;;22.50;16.83;;;15.30;96.30;;;;;;4923557;29;20758;-81
2021/06/06 05:07:59;;;;;;;16.97;14.70;;;15.30;96.30;;;;;;4937308;29;20455;-81
2021/06/06 05:10:26;;;;;;;15.10;13.60;;;15.30;96.30;;;;;;4924525;29;20164;-81
2021/06/06 05:12:51;;;;;;;13.97;12.37;;;15.40;96.30;;;;;;4923858;29;20420;-80
2021/06/06 05:15:19;;;;;;;9.57;8.67;;;15.30;96.30;;;;;;4923783;29;20483;-80
2021/06/06 05:17:45;;;;;;;11.07;9.97;;;15.40;96.30;;;;;;4921867;29;20195;-80
2021/06/06 05:20:13;;;;;;;10.33;9.37;;;15.40;96.30;;;;;;4923081;29;20424;-81
2021/06/06 05:22:38;;;;;;;9.40;8.50;;;15.40;96.30;;;;;;4923658;29;20856;-80
2021/06/06 05:25:06;;;;;;;8.37;7.60;;;15.50;96.30;;;;;;4922376;29;20445;-80
2021/06/06 05:27:32;;;;;;;9.20;8.20;;;15.50;96.30;;;;;;4920651;29;20172;-80
2021/06/06 05:29:58;;;;;;;8.43;7.70;;;15.50;96.30;;;;;;4922706;29;20409;-80
2021/06/06 05:32:23;;;;;;;9.80;8.97;;;15.50;96.30;;;;;;4921536;29;20446;-80
2021/06/06 05:34:49;;;;;;;8.70;8.00;;;15.50;96.30;;;;;;4918502;29;20206;-80
2021/06/06 05:37:14;;;;;;;18.60;8.47;;;15.50;96.30;;;;;;4918504;29;20661;-80
2021/06/06 05:39:41;;;;;;;9.87;8.97;;;15.60;96.30;;;;;;4918059;29;20172;-80
2021/06/06 05:42:07;;;;;;;9.07;8.17;;;15.60;96.30;;;;;;4918416;29;20212;-80
2021/06/06 05:44:34;;;;;;;10.20;9.20;;;15.70;96.30;;;;;;4917681;29;20959;-79
2021/06/06 05:46:59;;;;;;;9.20;8.40;;;15.70;96.30;;;;;;4915926;29;20417;-80
2021/06/06 05:49:25;;;;;;;10.60;8.70;;;15.70;96.30;;;;;;4932187;29;20814;-80
2021/06/06 05:51:50;;;;;;;9.63;8.63;;;15.80;96.30;;;;;;4923856;29;20539;-80
2021/06/06 05:54:16;;;;;;;12.57;11.27;;;15.80;96.30;;;;;;4936217;29;20211;-80
2021/06/06 05:56:43;;;;;;;12.17;10.87;;;15.90;96.30;;;;;;4935227;29;20722;-80
2021/06/06 05:59:09;;;;;;;11.90;10.77;;;15.90;96.30;;;;;;4936250;29;20544;-80
2021/06/06 06:01:34;;;;;;;11.53;10.43;;;15.90;96.30;;;;;;4935612;29;20475;-80
2021/06/06 06:04:00;;;;;;;12.07;10.87;;;15.90;96.30;;;;;;4951067;29;20180;-80
2021/06/06 06:06:25;;;;;;;12.93;11.70;;;16.00;96.30;;;;;;4936360;29;20183;-80
2021/06/06 06:08:51;;;;;;;13.00;11.70;;;16.00;96.30;;;;;;4933295;29;20246;-80
2021/06/06 06:11:20;;;;;;;10.83;9.83;;;16.00;96.30;;;;;;4951051;28;20282;-80
2021/06/06 06:13:47;;;;;;;11.37;10.27;;;16.00;96.30;;;;;;4937178;29;20212;-80
2021/06/06 06:16:16;;;;;;;11.87;10.57;;;16.00;96.30;;;;;;4936942;29;20451;-82
2021/06/06 06:18:42;;;;;;;12.87;11.50;;;16.00;96.30;;;;;;4938313;29;20419;-80
2021/06/06 06:21:12;;;;;;;12.67;11.00;;;16.00;96.30;;;;;;4937993;29;20831;-80
2021/06/06 06:23:38;;;;;;;12.80;11.60;;;16.00;96.30;;;;;;4937014;29;20442;-81
2021/06/06 06:26:05;;;;;;;13.53;12.10;;;16.00;96.30;;;;;;4939075;29;20499;-80
2021/06/06 06:28:31;;;;;;;13.17;11.87;;;16.00;96.30;;;;;;4936963;29;20179;-81
2021/06/06 06:30:57;;;;;;;13.83;12.53;;;16.10;96.30;;;;;;4938882;29;20463;-80
2021/06/06 06:33:22;;;;;;;13.87;12.47;;;16.10;96.30;;;;;;4937965;29;20198;-81
2021/06/06 06:35:48;;;;;;;13.23;11.83;;;16.20;96.30;;;;;;4938977;29;20939;-81
2021/06/06 06:38:14;;;;;;;14.87;12.50;;;16.30;96.30;;;;;;4939821;29;20656;-80
2021/06/06 06:40:40;;;;;;;14.60;13.10;;;16.30;96.30;;;;;;4940644;29;20474;-81
2021/06/06 06:43:06;;;;;;;14.63;12.30;;;16.40;96.30;;;;;;4941453;29;20175;-81
2021/06/06 06:45:35;;;;;;;18.60;13.30;;;16.30;96.30;;;;;;4942827;29;20172;-81
2021/06/06 06:48:07;;;;;;;17.03;13.70;;;16.30;96.30;;;;;;4940845;29;20415;-81
2021/06/06 06:50:33;;;;;;;14.63;12.30;;;16.40;96.30;;;;;;4944085;29;20445;-81
2021/06/06 06:53:00;;;;;;;15.40;12.73;;;16.50;96.30;;;;;;4939298;29;20447;-81
2021/06/06 06:55:26;;;;;;;15.33;13.93;;;16.50;96.30;;;;;;4939765;29;20459;-81
2021/06/06 06:57:56;;;;;;;14.93;13.40;;;16.60;96.30;;;;;;4938486;29;20498;-81
2021/06/06 07:00:26;;;;;;;14.60;13.10;;;16.60;96.30;;;;;;4938882;29;20567;-81
2021/06/06 07:02:51;;;;;;;14.63;13.10;;;16.60;96.30;;;;;;4938704;29;20804;-82
2021/06/06 07:05:17;;;;;;;14.90;13.50;;;16.70;96.30;;;;;;4937138;29;20459;-82
2021/06/06 07:07:42;;;;;;;15.97;13.60;;;16.60;96.30;;;;;;4939028;29;20171;-81
2021/06/06 07:10:11;;;;;;;15.97;14.27;;;16.60;96.30;;;;;;4940215;29;20176;-82
2021/06/06 07:12:37;;;;;;;17.33;14.80;;;16.70;96.30;;;;;;4939891;29;20175;-82
2021/06/06 07:15:06;;;;;;;16.57;14.63;;;16.80;96.30;;;;;;4939386;29;20416;-81
2021/06/06 07:17:32;;;;;;;16.07;13.70;;;16.70;96.30;;;;;;4938596;29;20416;-82
2021/06/06 07:19:57;;;;;;;19.20;14.80;;;16.80;96.30;;;;;;4937970;29;20554;-80
2021/06/06 07:22:23;;;;;;;13.90;12.50;;;16.80;96.30;;;;;;4939044;29;20690;-80
2021/06/06 07:24:48;;;;;;;16.23;14.53;;;16.80;96.30;;;;;;4940528;29;20188;-79
2021/06/06 07:27:14;;;;;;;12.33;11.00;;;16.80;96.30;;;;;;4937637;29;20179;-79
2021/06/06 07:29:39;;;;;;;11.40;10.30;;;16.90;96.30;;;;;;4940646;29;20176;-79
2021/06/06 07:32:05;;;;;;;12.13;10.93;;;16.90;96.30;;;;;;4940215;29;20235;-79
2021/06/06 07:34:32;;;;;;;13.07;11.87;;;16.90;96.30;;;;;;4938660;29;20275;-79
2021/06/06 07:37:04;;;;;;;12.97;11.67;;;17.00;96.30;;;;;;4938224;29;20424;-79
2021/06/06 07:39:30;;;;;;;12.10;10.90;;;17.20;96.30;;;;;;4940555;29;20422;-79
2021/06/06 07:41:55;;;;;;;13.20;10.83;;;17.30;96.30;;;;;;4938996;29;20542;-79
2021/06/06 07:44:21;;;;;;;12.30;11.10;;;17.50;96.30;;;;;;4939549;29;20227;-79
2021/06/06 07:46:48;;;;;;;12.67;11.47;;;17.70;96.30;;;;;;4940245;29;20187;-80
2021/06/06 07:49:15;;;;;;;11.00;10.07;;;17.80;96.30;;;;;;4941731;29;20186;-80
2021/06/06 07:51:41;;;;;;;10.80;9.80;;;17.90;96.30;;;;;;4941107;29;20801;-80
2021/06/06 07:54:07;;;;;;;11.07;10.10;;;18.00;96.30;;;;;;4940018;29;20419;-80
2021/06/06 07:56:34;;;;;;;10.87;8.90;;;18.10;96.30;;;;;;4940631;29;20175;-81
2021/06/06 07:58:59;;;;;;;15.17;9.50;;;18.00;96.30;;;;;;4943535;29;20511;-80
2021/06/06 08:01:25;;;;;;;10.23;9.33;;;18.00;96.30;;;;;;4938943;29;20494;-80
2021/06/06 08:03:51;;;;;;;9.80;9.10;;;18.10;96.30;;;;;;4937225;29;20266;-77
2021/06/06 08:06:17;;;;;;;9.87;8.60;;;18.10;96.30;;;;;;4936927;29;20179;-81
2021/06/06 08:08:43;;;;;;;9.77;8.77;;;18.20;96.30;;;;;;4937966;29;20423;-81
2021/06/06 08:11:10;;;;;;;10.10;9.20;;;18.30;96.30;;;;;;4936271;29;20465;-80
2021/06/06 08:13:36;;;;;;;10.43;9.40;;;18.60;96.30;;;;;;4939844;29;20180;-80
2021/06/06 08:16:02;;;;;;;10.57;8.60;;;18.70;96.30;;;;;;4940435;29;20451;-80
2021/06/06 08:18:38;;;;;;;9.40;8.60;;;18.80;96.30;;;;;;4938684;29;20418;-80
2021/06/06 08:21:12;;;;;;;9.83;9.03;;;19.20;96.30;;;;;;4954022;28;20526;-80
2021/06/06 08:23:38;;;;;;;10.00;9.13;;;19.20;96.30;;;;;;4924347;29;20409;-80
2021/06/06 08:26:04;;;;;;;10.07;9.07;;;19.30;96.30;;;;;;4939390;29;20443;-80
2021/06/06 08:28:31;;;;;;;10.97;8.93;;;19.60;96.30;;;;;;4938669;29;20467;-80
2021/06/06 08:31:03;;;;;;;9.70;8.80;;;19.70;96.30;;;;;;4939184;29;20439;-80
2021/06/06 08:33:31;;;;;;;10.27;9.40;;;20.00;96.30;;;;;;4939814;29;20423;-80
2021/06/06 08:36:00;;;;;;;9.80;8.90;;;20.10;96.30;;;;;;4940495;29;20411;-79
2021/06/06 08:38:29;;;;;;;9.30;8.50;;;20.00;96.30;;;;;;4938441;29;21144;-79
2021/06/06 08:41:13;;;;;;;10.93;9.47;;;19.90;96.30;;;;;;4938640;29;20477;-80
2021/06/06 08:43:51;;;;;;;10.03;9.13;;;20.00;96.30;;;;;;4938334;29;20408;-80
2021/06/06 08:46:18;;;;;;;9.40;7.77;;;20.30;96.30;;;;;;4937224;29;20415;-80
2021/06/06 08:48:44;;;;;;;9.43;8.63;;;20.60;96.30;;;;;;4938401;29;20459;-80
2021/06/06 08:51:17;;;;;;;9.23;8.43;;;20.70;96.30;;;;;;4936928;29;20439;-80
2021/06/06 08:53:45;;;;;;;8.57;7.80;;;20.90;96.30;;;;;;4938270;29;20404;-80
2021/06/06 08:56:20;;;;;;;10.33;9.33;;;20.80;96.30;;;;;;4938656;29;20432;-80
2021/06/06 08:58:55;;;;;;;9.40;8.67;;;21.10;96.30;;;;;;4924867;29;20468;-80
2021/06/06 09:01:39;;;;;;;10.23;9.37;;;21.00;96.30;;;;;;4934876;29;20488;-80
2021/06/06 09:04:10;;;;;;;9.67;8.67;;;21.30;96.30;;;;;;4937790;29;20419;-81
2021/06/06 09:06:50;;;;;;;15.63;9.30;;;21.40;96.30;;;;;;4936916;29;20423;-80
2021/06/06 09:09:17;;;;;;;10.63;9.73;;;21.60;96.30;;;;;;4923912;29;20399;-81
2021/06/06 09:11:43;;;;;;;9.40;8.60;;;22.00;96.30;;;;;;4939607;29;20795;-80
2021/06/06 09:14:10;;;;;;;9.93;9.10;;;22.50;96.30;;;;;;4937714;29;20518;-80
2021/06/06 09:17:00;;;;;;;8.50;7.70;;;22.80;96.30;;;;;;4938628;29;20419;-79
2021/06/06 09:19:27;;;;;;;9.63;8.73;;;23.70;96.30;;;;;;4939524;29;20420;-80
2021/06/06 09:22:02;;;;;;;8.60;7.90;;;23.70;96.30;;;;;;4928029;29;20467;-81
2021/06/06 09:24:37;;;;;;;12.20;8.17;;;24.30;96.30;;;;;;4935052;29;20415;-81
2021/06/06 09:27:11;;;;;;;9.37;8.43;;;25.10;96.10;;;;;;4935286;29;20411;-81
2021/06/06 09:29:37;;;;;;;9.97;9.03;;;25.60;96.30;;;;;;4920697;29;20935;-80
2021/06/06 09:32:21;;;;;;;9.23;8.53;;;26.30;96.30;;;;;;4934927;29;20434;-81
2021/06/06 09:35:15;;;;;;;8.37;7.77;;;26.50;95.00;;;;;;4934396;29;20176;-81
2021/06/06 09:37:46;;;;;;;9.40;8.30;;;25.20;94.20;;;;;;4917331;29;20932;-81
2021/06/06 09:40:25;;;;;;;8.27;7.37;;;24.00;96.30;;;;;;4919678;29;20412;-81
2021/06/06 09:42:51;;;;;;;7.80;7.20;;;23.80;96.30;;;;;;4929956;29;20459;-81
2021/06/06 09:45:35;;;;;;;8.70;7.90;;;24.00;96.30;;;;;;4936817;29;20410;-81
2021/06/06 09:48:10;;;;;;;8.33;7.63;;;24.90;96.30;;;;;;4932738;29;20260;-81
2021/06/06 09:50:45;;;;;;;8.60;7.90;;;25.20;96.10;;;;;;4935716;29;20441;-81
2021/06/06 09:53:22;;;;;;;8.37;7.67;;;25.50;94.30;;;;;;4936732;29;20415;-81
2021/06/06 09:55:48;;;;;;;7.60;7.00;;;25.00;95.30;;;;;;4935595;29;20415;-82
2021/06/06 09:58:17;;;;;;;7.60;7.00;;;25.20;96.30;;;;;;4936219;29;20833;-81
2021/06/06 10:00:49;;;;;;;8.63;7.27;;;25.50;93.90;;;;;;4934859;29;20561;-82
2021/06/06 10:03:36;;;;;;;7.50;6.90;;;25.40;96.30;;;;;;4938596;29;21039;-82
2021/06/06 10:06:30;;;;;;;7.50;6.70;;;25.80;96.30;;;;;;4936679;29;20407;-82
2021/06/06 10:09:04;;;;;;;8.27;7.47;;;26.40;96.30;;;;;;4937707;29;20418;-76
2021/06/06 10:11:36;;;;;;;10.93;7.20;;;27.00;89.20;;;;;;4936046;29;20486;-82
2021/06/06 10:14:03;;;;;;;7.43;6.83;;;26.30;95.70;;;;;;4936346;29;20426;-83
2021/06/06 10:16:36;;;;;;;10.77;6.33;;;27.40;94.10;;;;;;4932036;29;20430;-83
2021/06/06 10:19:04;;;;;;;12.43;5.93;;;27.70;86.80;;;;;;4933351;29;20422;-84
2021/06/06 10:21:34;;;;;;;5.87;5.47;;;27.40;85.60;;;;;;4934627;29;20470;-83
2021/06/06 10:24:04;;;;;;;9.60;5.93;;;27.70;81.30;;;;;;4934051;29;20419;-83
2021/06/06 10:26:35;;;;;;;8.13;5.60;;;27.60;85.80;;;;;;4937336;29;20769;-84
2021/06/06 10:29:08;;;;;;;7.07;5.60;;;27.40;87.70;;;;;;4935691;29;20399;-83
2021/06/06 10:31:42;;;;;;;6.37;5.17;;;27.20;84.00;;;;;;4939332;29;20446;-83
2021/06/06 10:34:51;;;;;;;6.97;5.83;;;26.60;84.50;;;;;;4954496;29;20422;-82
2021/06/06 10:37:17;;;;;;;6.30;5.80;;;26.00;87.80;;;;;;4986989;23;20495;-79
2021/06/06 10:39:52;;;;;;;6.90;6.30;;;26.70;93.70;;;;;;4956964;28;20503;-79
2021/06/06 10:42:29;;;;;;;6.83;6.33;;;27.80;91.60;;;;;;4956084;29;20205;-79
2021/06/06 10:45:05;;;;;;;6.53;5.97;;;27.80;91.90;;;;;;4957265;28;20402;-78
2021/06/06 10:47:54;;;;;;;5.60;5.20;;;27.10;89.20;;;;;;4956391;28;20453;-78
2021/06/06 10:50:22;;;;;;;6.03;5.43;;;26.30;89.60;;;;;;4957109;28;20402;-78
2021/06/06 10:52:48;;;;;;;5.83;4.93;;;25.50;89.50;;;;;;4954194;29;20906;-78
2021/06/06 10:55:28;;;;;;;6.03;5.10;;;24.90;92.70;;;;;;4956778;28;20441;-78
2021/06/06 10:57:54;;;;;;;5.10;4.60;;;24.40;89.80;;;;;;4956549;28;20202;-78
2021/06/06 11:00:24;;;;;;;5.77;5.27;;;24.00;92.20;;;;;;4956955;28;20421;-78
2021/06/06 11:02:49;;;;;;;6.70;4.70;;;24.10;95.40;;;;;;4956985;28;20414;-79
2021/06/06 11:05:38;;;;;;;6.87;6.20;;;24.10;91.00;;;;;;4956182;28;20837;-80
2021/06/06 11:08:16;;;;;;;5.40;4.90;;;24.60;96.30;;;;;;4952585;29;20588;-79
2021/06/06 11:10:43;;;;;;;4.33;3.90;;;24.40;96.30;;;;;;4956510;28;20787;-79
2021/06/06 11:13:30;;;;;;;5.50;4.27;;;24.40;96.30;;;;;;4957595;28;20823;-78
2021/06/06 11:16:02;;;;;;;5.17;4.73;;;24.60;95.30;;;;;;4958768;28;20445;-80
2021/06/06 11:18:28;;;;;;;6.20;4.10;;;24.70;95.00;;;;;;4959147;28;20905;-80
2021/06/06 11:21:00;;;;;;;5.00;4.47;;;23.90;92.30;;;;;;4956714;28;20446;-79
2021/06/06 11:23:36;;;;;;;7.23;4.13;;;23.50;93.00;;;;;;4956484;28;20183;-80
2021/06/06 11:26:44;;;;;;;5.10;4.60;;;23.70;95.20;;;;;;4956909;28;20437;-79
2021/06/06 11:29:14;;;;;;;7.83;3.80;;;23.30;93.70;;;;;;4956630;28;20434;-79
2021/06/06 11:32:24;;;;;;;14.73;6.00;;;23.10;96.30;;;;;;4956784;28;20462;-79
2021/06/06 11:35:05;;;;;;;4.70;4.30;;;23.20;96.30;;;;;;4916037;29;20913;-80
2021/06/06 11:37:32;;;;;;;5.93;4.10;;;23.40;94.80;;;;;;4914955;29;20499;-79
2021/06/06 11:40:00;;;;;;;5.40;4.67;;;23.40;94.10;;;;;;4941184;28;20454;-79
2021/06/06 11:42:31;;;;;;;4.43;4.00;;;23.50;96.30;;;;;;4955206;28;20458;-79
2021/06/06 11:45:02;;;;;;;6.00;4.03;;;23.60;93.70;;;;;;4955062;29;20429;-79
2021/06/06 11:47:40;;;;;;;4.70;4.00;;;23.70;91.30;;;;;;4955933;28;20779;-79
2021/06/06 11:50:23;;;;;;;5.30;4.10;;;23.90;89.70;;;;;;4955246;29;20419;-79
2021/06/06 11:52:58;;;;;;;5.40;4.90;;;23.90;93.10;;;;;;4956337;28;20407;-79
2021/06/06 11:55:24;;;;;;;5.10;4.70;;;23.90;91.20;;;;;;4956407;28;20409;-79
2021/06/06 11:57:56;;;;;;;7.37;5.83;;;23.60;95.50;;;;;;4955011;28;20509;-78
2021/06/06 12:00:42;;;;;;;8.00;6.40;;;23.00;96.30;;;;;;4955371;28;20178;-78
2021/06/06 12:03:12;;;;;;;6.77;5.43;;;22.90;96.30;;;;;;4955759;28;20493;-77
2021/06/06 12:05:48;;;;;;;7.03;6.37;;;23.40;96.30;;;;;;4955905;28;20477;-78
2021/06/06 12:08:14;;;;;;;6.93;6.27;;;23.70;96.30;;;;;;4955620;28;20406;-77
2021/06/06 12:10:50;;;;;;;5.40;5.00;;;23.30;96.30;;;;;;4956869;28;20454;-80
2021/06/06 12:13:21;;;;;;;6.40;4.83;;;23.00;96.30;;;;;;4955581;29;20178;-79
2021/06/06 12:15:47;;;;;;;6.60;5.50;;;23.10;96.30;;;;;;4956675;28;20462;-79
2021/06/06 12:18:19;;;;;;;5.73;5.10;;;23.30;96.30;;;;;;4956061;28;20410;-79
2021/06/06 12:21:10;;;;;;;5.77;5.17;;;23.50;96.30;;;;;;4956883;28;20195;-80
2021/06/06 12:23:44;;;;;;;6.30;4.60;;;23.90;96.30;;;;;;4956995;28;20463;-80
2021/06/06 12:26:14;;;;;;;5.07;4.63;;;24.40;96.30;;;;;;4955904;28;20430;-79
2021/06/06 12:28:43;;;;;;;5.53;4.90;;;24.60;96.30;;;;;;4954982;28;20410;-78
2021/06/06 12:31:32;;;;;;;5.00;4.60;;;24.90;96.30;;;;;;4955651;28;20418;-78
2021/06/06 12:34:20;;;;;;;8.50;4.73;;;25.10;91.80;;;;;;4955654;28;20446;-79
2021/06/06 12:36:47;;;;;;;6.40;4.50;;;25.00;92.70;;;;;;4954847;28;20508;-78
2021/06/06 12:39:17;;;;;;;4.90;4.50;;;24.80;95.40;;;;;;4955448;28;20411;-79
2021/06/06 12:41:45;;;;;;;4.87;4.40;;;25.00;93.60;;;;;;4955308;28;20468;-78
2021/06/06 12:44:13;;;;;;;4.70;4.00;;;25.10;89.70;;;;;;4954547;28;20490;-78
2021/06/06 12:46:56;;;;;;;4.97;4.50;;;24.30;87.10;;;;;;4954339;28;20465;-78
2021/06/06 12:49:51;;;;;;;4.93;4.50;;;24.50;88.40;;;;;;4954016;28;20429;-78
2021/06/06 12:52:31;;;;;;;5.50;5.00;;;24.70;86.90;;;;;;4951642;29;20414;-78
2021/06/06 12:55:10;;;;;;;4.40;4.00;;;24.90;89.40;;;;;;4934578;29;20403;-79
2021/06/06 12:57:37;;;;;;;5.20;4.63;;;24.80;86.20;;;;;;4943802;29;20442;-78
2021/06/06 13:00:23;;;;;;;13.10;4.03;;;24.50;87.80;;;;;;4949341;28;20426;-78
2021/06/06 13:02:49;;;;;;;9.63;4.30;;;24.30;82.30;;;;;;4934147;29;20483;-78
2021/06/06 13:05:33;;;;;;;4.27;3.87;;;24.30;85.30;;;;;;4943229;29;20415;-78
2021/06/06 13:08:04;;;;;;;3.90;3.60;;;24.10;82.40;;;;;;4951835;29;20414;-78
2021/06/06 13:10:54;;;;;;;10.30;4.20;;;24.30;85.10;;;;;;4952170;28;20415;-78
2021/06/06 13:13:30;;;;;;;4.97;4.10;;;24.60;88.00;;;;;;4953314;28;20776;-78
2021/06/06 13:15:56;;;;;;;4.37;4.07;;;24.60;94.70;;;;;;4953181;28;20992;-78
2021/06/06 13:18:28;;;;;;;4.03;3.63;;;24.70;91.30;;;;;;4953480;28;20497;-79
2021/06/06 13:20:59;;;;;;;4.23;3.83;;;24.80;89.00;;;;;;4952041;28;20903;-79
2021/06/06 13:23:25;;;;;;;5.80;2.67;;;24.80;86.90;;;;;;4953729;28;20473;-78
2021/06/06 13:25:50;;;;;;;3.60;3.13;;;25.00;79.60;;;;;;4951555;29;20977;-78
2021/06/06 13:28:21;;;;;;;3.47;3.17;;;25.60;81.50;;;;;;4952545;28;20171;-78
2021/06/06 13:30:49;;;;;;;3.77;2.77;;;26.10;75.70;;;;;;4937462;28;20176;-78
2021/06/06 13:33:16;;;;;;;2.90;2.70;;;26.50;76.30;;;;;;4935258;29;20451;-79
2021/06/06 13:35:42;;;;;;;2.80;2.60;;;26.40;72.60;;;;;;4940892;28;20541;-78
2021/06/06 13:38:09;;;;;;;4.27;2.63;;;26.10;74.40;;;;;;4951136;29;20446;-78
2021/06/06 13:40:42;;;;;;;4.20;2.87;;;25.70;75.30;;;;;;4939766;28;20458;-79
2021/06/06 13:43:09;;;;;;;3.00;2.70;;;25.80;69.50;;;;;;4945935;29;20411;-78
2021/06/06 13:45:35;;;;;;;2.70;2.50;;;26.10;70.60;;;;;;4951706;28;20445;-79
2021/06/06 13:48:05;;;;;;;3.30;3.00;;;25.80;70.50;;;;;;4947522;28;20414;-78
2021/06/06 13:50:39;;;;;;;2.80;2.60;;;26.20;68.80;;;;;;4947015;28;20171;-79
2021/06/06 13:53:04;;;;;;;11.63;3.50;;;26.40;71.80;;;;;;4953264;28;20390;-78
2021/06/06 13:55:32;;;;;;;5.50;3.37;;;26.80;71.50;;;;;;4951742;28;20498;-78
2021/06/06 13:57:59;;;;;;;3.60;3.30;;;26.60;75.20;;;;;;4952300;28;20243;-79
2021/06/06 14:00:26;;;;;;;3.37;3.13;;;26.50;72.50;;;;;;4948670;29;20510;-79
2021/06/06 14:02:59;;;;;;;4.10;3.33;;;26.00;71.90;;;;;;4937389;29;20430;-79
2021/06/06 14:05:24;;;;;;;3.27;3.07;;;25.50;73.60;;;;;;4945012;28;20481;-78
2021/06/06 14:07:50;;;;;;;4.20;3.17;;;25.20;76.30;;;;;;4937969;29;20923;-79
2021/06/06 14:10:27;;;;;;;4.13;3.70;;;24.80;75.90;;;;;;4952324;29;20178;-78
2021/06/06 14:12:53;;;;;;;3.67;3.30;;;24.60;75.20;;;;;;4941560;28;20414;-78
2021/06/06 14:15:22;;;;;;;6.83;3.80;;;24.20;75.20;;;;;;4939905;29;20903;-78
2021/06/06 14:17:48;;;;;;;6.23;3.40;;;24.40;74.20;;;;;;4945103;28;20411;-78
2021/06/06 14:20:14;;;;;;;5.50;2.90;;;24.80;73.90;;;;;;4944768;29;20517;-78
2021/06/06 14:22:41;;;;;;;4.43;2.90;;;25.30;72.60;;;;;;4952998;28;20450;-79
2021/06/06 14:25:09;;;;;;;4.50;3.70;;;25.60;72.90;;;;;;4951933;28;20422;-79
2021/06/06 14:27:35;;;;;;;8.43;3.20;;;25.60;75.90;;;;;;4952594;28;20983;-79
2021/06/06 14:30:01;;;;;;;6.00;3.73;;;26.00;73.60;;;;;;4945821;29;20473;-79
2021/06/06 14:32:26;;;;;;;3.73;3.10;;;25.80;74.70;;;;;;4933440;29;20222;-79
2021/06/06 14:34:52;;;;;;;4.80;3.53;;;25.40;75.30;;;;;;4934416;29;20319;-78
2021/06/06 14:37:17;;;;;;;4.50;3.00;;;25.30;74.90;;;;;;4941864;29;20694;-78
2021/06/06 14:39:43;;;;;;;4.03;2.90;;;25.60;75.70;;;;;;4953480;28;20262;-79
2021/06/06 14:42:08;;;;;;;3.73;3.40;;;25.60;74.10;;;;;;4951513;29;20207;-78
2021/06/06 14:44:34;;;;;;;3.93;3.00;;;25.40;75.80;;;;;;4949975;28;20974;-78
2021/06/06 14:47:00;;;;;;;3.57;3.27;;;25.30;73.90;;;;;;4953434;28;20198;-77
2021/06/06 14:49:26;;;;;;;3.63;2.90;;;25.50;75.00;;;;;;4949373;29;20182;-78
2021/06/06 14:51:51;;;;;;;9.27;3.60;;;25.50;73.70;;;;;;4947889;28;20512;-78
2021/06/06 14:54:19;;;;;;;3.53;3.23;;;25.60;77.20;;;;;;4938409;28;20266;-76
2021/06/06 14:56:45;;;;;;;3.07;2.83;;;25.40;73.50;;;;;;4952181;28;20190;-77
2021/06/06 14:59:12;;;;;;;4.17;3.30;;;25.40;74.60;;;;;;4948040;28;20501;-76
2021/06/06 15:01:39;;;;;;;11.43;3.00;;;25.20;75.80;;;;;;4944617;29;20843;-77
2021/06/06 15:04:05;;;;;;;5.17;3.47;;;24.70;74.50;;;;;;4952733;28;20426;-76
2021/06/06 15:06:31;;;;;;;4.20;3.37;;;24.70;79.00;;;;;;4932613;29;20455;-77
2021/06/06 15:08:57;;;;;;;3.80;3.50;;;24.40;75.50;;;;;;4947049;29;20506;-76
2021/06/06 15:11:23;;;;;;;6.90;3.50;;;24.70;79.20;;;;;;4936810;29;20443;-76
2021/06/06 15:13:50;;;;;;;3.50;3.20;;;24.60;76.10;;;;;;4935379;29;20691;-76
2021/06/06 15:16:17;;;;;;;4.10;2.97;;;24.40;76.70;;;;;;4942662;29;20690;-77
2021/06/06 15:18:44;;;;;;;5.93;3.53;;;24.70;75.30;;;;;;4954589;28;20507;-77
2021/06/06 15:21:18;;;;;;;3.30;3.00;;;24.90;73.30;;;;;;4954924;28;20457;-77
2021/06/06 15:23:48;;;;;;;3.23;2.63;;;25.00;74.10;;;;;;4946700;28;20920;-76
2021/06/06 15:26:15;;;;;;;3.80;2.80;;;24.80;70.00;;;;;;4936559;29;20443;-77
2021/06/06 15:28:41;;;;;;;4.33;3.10;;;24.30;71.30;;;;;;4948482;29;20501;-77
2021/06/06 15:31:08;;;;;;;5.10;2.77;;;24.20;72.80;;;;;;4950619;28;20513;-78
2021/06/06 15:33:34;;;;;;;4.93;2.83;;;24.20;74.50;;;;;;4956070;28;20218;-77
2021/06/06 15:36:02;;;;;;;3.10;2.90;;;24.40;74.60;;;;;;4954307;28;20997;-76
2021/06/06 15:38:30;;;;;;;11.50;3.03;;;24.40;71.20;;;;;;4955115;28;20313;-77
2021/06/06 15:40:58;;;;;;;3.80;2.73;;;24.50;73.70;;;;;;4955664;28;20450;-77
2021/06/06 15:43:25;;;;;;;6.00;2.43;;;24.30;73.00;;;;;;4954351;28;20794;-76
2021/06/06 15:45:52;;;;;;;3.20;2.90;;;24.20;72.50;;;;;;4955605;28;20494;-78
2021/06/06 15:48:19;;;;;;;2.90;2.47;;;24.20;68.90;;;;;;4951858;28;20414;-76
2021/06/06 15:50:45;;;;;;;5.07;2.53;;;24.10;68.50;;;;;;4946920;29;20505;-77
2021/06/06 15:53:15;;;;;;;4.33;2.33;;;24.30;71.00;;;;;;4939434;28;20514;-77
2021/06/06 15:55:41;;;;;;;3.00;2.80;;;24.60;73.60;;;;;;4942664;29;20675;-76
2021/06/06 15:58:09;;;;;;;3.30;2.80;;;24.50;71.40;;;;;;4953928;28;20419;-76
2021/06/06 16:00:35;;;;;;;2.67;2.47;;;24.50;73.50;;;;;;4948666;29;20937;-76
2021/06/06 16:03:07;;;;;;;4.17;2.77;;;24.20;73.50;;;;;;4955046;28;20418;-77
2021/06/06 16:05:33;;;;;;;4.97;2.80;;;23.90;73.80;;;;;;4948327;29;20174;-77
2021/06/06 16:07:59;;;;;;;2.97;2.77;;;23.40;75.60;;;;;;4949285;29;20991;-77
2021/06/06 16:10:28;;;;;;;3.10;2.63;;;23.50;77.60;;;;;;4954872;28;20465;-78
2021/06/06 16:12:55;;;;;;;2.73;2.53;;;23.80;73.90;;;;;;4936629;28;20474;-77
2021/06/06 16:15:23;;;;;;;9.30;2.77;;;24.00;77.10;;;;;;4936280;29;20918;-77
2021/06/06 16:17:48;;;;;;;2.47;2.27;;;23.90;73.70;;;;;;4933979;29;20474;-77
2021/06/06 16:20:15;;;;;;;3.47;2.17;;;23.90;76.10;;;;;;4936193;29;20411;-78
2021/06/06 16:22:43;;;;;;;4.93;3.00;;;24.00;72.70;;;;;;4936623;29;20203;-80
2021/06/06 16:25:12;;;;;;;3.57;2.63;;;24.10;75.00;;;;;;4951767;28;20505;-76
2021/06/06 16:27:38;;;;;;;5.27;3.00;;;24.10;72.60;;;;;;4953818;28;20435;-77
2021/06/06 16:30:05;;;;;;;3.50;2.77;;;23.90;72.50;;;;;;4948349;28;20485;-76
2021/06/06 16:32:30;;;;;;;6.50;2.60;;;23.50;75.50;;;;;;4948952;28;20178;-77
2021/06/06 16:34:56;;;;;;;3.30;2.97;;;23.30;77.70;;;;;;4950429;28;20458;-77
2021/06/06 16:37:21;;;;;;;4.47;3.07;;;23.10;76.90;;;;;;4939620;28;20243;-77
2021/06/06 16:39:47;;;;;;;3.40;2.60;;;22.90;76.60;;;;;;4940096;29;20664;-78
2021/06/06 16:42:13;;;;;;;3.60;3.30;;;22.70;77.20;;;;;;4945559;29;20250;-76
2021/06/06 16:44:39;;;;;;;3.27;2.97;;;22.60;82.00;;;;;;4940875;28;20207;-77
2021/06/06 16:47:05;;;;;;;3.83;2.40;;;22.50;82.00;;;;;;4947525;28;20203;-77
2021/06/06 16:49:31;;;;;;;4.00;3.10;;;22.30;81.90;;;;;;4934610;29;20411;-78
2021/06/06 16:51:57;;;;;;;4.00;2.90;;;22.10;81.20;;;;;;4940248;29;20179;-79
2021/06/06 16:54:22;;;;;;;2.80;2.60;;;21.90;80.40;;;;;;4953619;28;20438;-78